sensor_id;sensor_type;location;lat;lon;timestamp;P1;durP1;ratioP1;P2;durP2;ratioP2
8564;SDS011;4320;51.498;6.556;2023-01-01T00:02:25;17.35;;;7.65;;
8564;SDS011;4320;51.498;6.556;2023-01-01T00:04:51;19.60;;;8.70;;
8564;SDS011;4320;51.498;6.556;2023-01-01T00:07:17;12.18;;;6.68;;
8564;SDS011;4320;51.498;6.556;2023-01-01T00:09:43;17.05;;;6.90;;
8564;SDS011;4320;51.498;6.556;2023-01-01T00:12:27;12.00;;;7.20;;
8564;SDS011;4320;51.498;6.556;2023-01-01T00:14:52;17.20;;;7.15;;
8564;SDS011;4320;51.498;6.556;2023-01-01T00:17:18;10.38;;;6.38;;
8564;SDS011;4320;51.498;6.556;2023-01-01T00:19:43;10.32;;;4.53;;
8564;SDS011;4320;51.498;6.556;2023-01-01T00:22:09;10.93;;;4.38;;
8564;SDS011;4320;51.498;6.556;2023-01-01T00:24:35;12.50;;;5.25;;
8564;SDS011;4320;51.498;6.556;2023-01-01T00:27:00;11.07;;;5.43;;
8564;SDS011;4320;51.498;6.556;2023-01-01T00:29:26;9.38;;;4.32;;
8564;SDS011;4320;51.498;6.556;2023-01-01T00:31:51;10.15;;;4.72;;
8564;SDS011;4320;51.498;6.556;2023-01-01T00:34:17;11.70;;;4.53;;
8564;SDS011;4320;51.498;6.556;2023-01-01T00:36:43;12.07;;;5.47;;
8564;SDS011;4320;51.498;6.556;2023-01-01T00:39:08;9.63;;;5.57;;
8564;SDS011;4320;51.498;6.556;2023-01-01T00:41:34;16.00;;;5.72;;
8564;SDS011;4320;51.498;6.556;2023-01-01T00:43:59;10.18;;;5.93;;
8564;SDS011;4320;51.498;6.556;2023-01-01T00:46:25;9.82;;;5.75;;
8564;SDS011;4320;51.498;6.556;2023-01-01T00:48:51;7.15;;;5.30;;
8564;SDS011;4320;51.498;6.556;2023-01-01T00:51:17;10.70;;;6.30;;
8564;SDS011;4320;51.498;6.556;2023-01-01T00:53:42;13.73;;;6.15;;
8564;SDS011;4320;51.498;6.556;2023-01-01T00:56:08;10.43;;;5.18;;
8564;SDS011;4320;51.498;6.556;2023-01-01T00:58:33;9.88;;;5.55;;
8564;SDS011;4320;51.498;6.556;2023-01-01T01:00:59;9.75;;;4.97;;
8564;SDS011;4320;51.498;6.556;2023-01-01T01:03:25;12.80;;;4.90;;
8564;SDS011;4320;51.498;6.556;2023-01-01T01:08:24;8.57;;;4.97;;
8564;SDS011;4320;51.498;6.556;2023-01-01T01:10:51;9.02;;;4.80;;
8564;SDS011;4320;51.498;6.556;2023-01-01T01:13:17;7.05;;;4.53;;
8564;SDS011;4320;51.498;6.556;2023-01-01T01:15:43;9.50;;;4.90;;
8564;SDS011;4320;51.498;6.556;2023-01-01T01:18:08;12.65;;;4.85;;
8564;SDS011;4320;51.498;6.556;2023-01-01T01:20:34;7.72;;;4.45;;
8564;SDS011;4320;51.498;6.556;2023-01-01T01:22:59;11.52;;;5.68;;
8564;SDS011;4320;51.498;6.556;2023-01-01T01:25:25;10.68;;;5.13;;
8564;SDS011;4320;51.498;6.556;2023-01-01T01:27:51;7.35;;;5.15;;
8564;SDS011;4320;51.498;6.556;2023-01-01T01:30:16;6.05;;;4.30;;
8564;SDS011;4320;51.498;6.556;2023-01-01T01:32:42;6.32;;;4.47;;
8564;SDS011;4320;51.498;6.556;2023-01-01T01:35:08;6.57;;;3.70;;
8564;SDS011;4320;51.498;6.556;2023-01-01T01:37:33;12.38;;;4.35;;
8564;SDS011;4320;51.498;6.556;2023-01-01T01:39:59;9.07;;;3.72;;
8564;SDS011;4320;51.498;6.556;2023-01-01T01:42:25;6.28;;;4.00;;
8564;SDS011;4320;51.498;6.556;2023-01-01T01:44:52;7.18;;;3.15;;
8564;SDS011;4320;51.498;6.556;2023-01-01T01:50:46;11.30;;;5.30;;
8564;SDS011;4320;51.498;6.556;2023-01-01T01:55:59;8.98;;;3.30;;
8564;SDS011;4320;51.498;6.556;2023-01-01T01:58:27;6.50;;;2.15;;
8564;SDS011;4320;51.498;6.556;2023-01-01T02:00:55;10.30;;;2.60;;
8564;SDS011;4320;51.498;6.556;2023-01-01T02:03:38;7.68;;;2.90;;
8564;SDS011;4320;51.498;6.556;2023-01-01T02:06:10;7.82;;;2.80;;
8564;SDS011;4320;51.498;6.556;2023-01-01T02:08:36;5.50;;;2.67;;
8564;SDS011;4320;51.498;6.556;2023-01-01T02:11:02;5.68;;;2.47;;
8564;SDS011;4320;51.498;6.556;2023-01-01T02:13:28;2.83;;;2.13;;
8564;SDS011;4320;51.498;6.556;2023-01-01T02:16:08;5.72;;;2.20;;
8564;SDS011;4320;51.498;6.556;2023-01-01T02:18:42;6.38;;;2.30;;
8564;SDS011;4320;51.498;6.556;2023-01-01T02:21:27;4.90;;;2.30;;
8564;SDS011;4320;51.498;6.556;2023-01-01T02:26:45;7.07;;;2.17;;
8564;SDS011;4320;51.498;6.556;2023-01-01T02:29:37;2.95;;;2.00;;
8564;SDS011;4320;51.498;6.556;2023-01-01T02:32:25;3.28;;;2.10;;
8564;SDS011;4320;51.498;6.556;2023-01-01T02:34:59;6.68;;;2.08;;
8564;SDS011;4320;51.498;6.556;2023-01-01T02:37:49;4.78;;;2.20;;
8564;SDS011;4320;51.498;6.556;2023-01-01T02:40:18;4.30;;;1.98;;
8564;SDS011;4320;51.498;6.556;2023-01-01T02:42:47;5.03;;;1.95;;
8564;SDS011;4320;51.498;6.556;2023-01-01T02:45:14;6.53;;;1.80;;
8564;SDS011;4320;51.498;6.556;2023-01-01T02:47:40;4.13;;;2.05;;
8564;SDS011;4320;51.498;6.556;2023-01-01T02:52:42;2.72;;;1.90;;
8564;SDS011;4320;51.498;6.556;2023-01-01T02:55:15;6.70;;;2.00;;
8564;SDS011;4320;51.498;6.556;2023-01-01T02:57:55;8.70;;;2.40;;
8564;SDS011;4320;51.498;6.556;2023-01-01T03:04:05;6.82;;;2.20;;
8564;SDS011;4320;51.498;6.556;2023-01-01T03:06:55;8.13;;;2.17;;
8564;SDS011;4320;51.498;6.556;2023-01-01T03:09:32;5.72;;;2.05;;
8564;SDS011;4320;51.498;6.556;2023-01-01T03:12:10;5.57;;;2.58;;
8564;SDS011;4320;51.498;6.556;2023-01-01T03:19:45;6.03;;;1.85;;
8564;SDS011;4320;51.498;6.556;2023-01-01T03:22:14;5.82;;;1.90;;
8564;SDS011;4320;51.498;6.556;2023-01-01T03:24:43;2.55;;;1.75;;
8564;SDS011;4320;51.498;6.556;2023-01-01T03:27:19;3.38;;;1.65;;
8564;SDS011;4320;51.498;6.556;2023-01-01T03:29:50;3.92;;;1.80;;
8564;SDS011;4320;51.498;6.556;2023-01-01T03:32:22;5.28;;;1.85;;
8564;SDS011;4320;51.498;6.556;2023-01-01T03:35:17;7.20;;;1.80;;
8564;SDS011;4320;51.498;6.556;2023-01-01T03:37:45;5.60;;;1.85;;
8564;SDS011;4320;51.498;6.556;2023-01-01T03:40:16;2.95;;;1.70;;
8564;SDS011;4320;51.498;6.556;2023-01-01T03:42:45;3.92;;;1.90;;
8564;SDS011;4320;51.498;6.556;2023-01-01T03:45:16;8.60;;;2.10;;
8564;SDS011;4320;51.498;6.556;2023-01-01T03:47:49;6.57;;;1.83;;
8564;SDS011;4320;51.498;6.556;2023-01-01T03:50:15;2.63;;;1.45;;
8564;SDS011;4320;51.498;6.556;2023-01-01T03:52:56;2.70;;;1.85;;
8564;SDS011;4320;51.498;6.556;2023-01-01T03:55:45;5.85;;;1.90;;
8564;SDS011;4320;51.498;6.556;2023-01-01T04:00:45;6.40;;;1.70;;
8564;SDS011;4320;51.498;6.556;2023-01-01T04:03:25;10.15;;;2.05;;
8564;SDS011;4320;51.498;6.556;2023-01-01T04:05:53;4.15;;;1.70;;
8564;SDS011;4320;51.498;6.556;2023-01-01T04:08:19;7.55;;;2.17;;
8564;SDS011;4320;51.498;6.556;2023-01-01T04:10:45;6.25;;;1.92;;
8564;SDS011;4320;51.498;6.556;2023-01-01T04:13:53;5.65;;;2.47;;
8564;SDS011;4320;51.498;6.556;2023-01-01T04:16:19;5.53;;;2.05;;
8564;SDS011;4320;51.498;6.556;2023-01-01T04:18:45;4.53;;;1.75;;
8564;SDS011;4320;51.498;6.556;2023-01-01T04:21:11;6.60;;;1.98;;
8564;SDS011;4320;51.498;6.556;2023-01-01T04:23:36;3.13;;;1.70;;
8564;SDS011;4320;51.498;6.556;2023-01-01T04:26:02;5.18;;;1.55;;
8564;SDS011;4320;51.498;6.556;2023-01-01T04:28:28;4.15;;;1.60;;
8564;SDS011;4320;51.498;6.556;2023-01-01T04:30:53;6.85;;;2.22;;
8564;SDS011;4320;51.498;6.556;2023-01-01T04:33:19;2.72;;;1.75;;
8564;SDS011;4320;51.498;6.556;2023-01-01T04:35:46;5.03;;;1.73;;
8564;SDS011;4320;51.498;6.556;2023-01-01T04:38:12;3.53;;;1.48;;
8564;SDS011;4320;51.498;6.556;2023-01-01T04:40:38;8.02;;;1.92;;
8564;SDS011;4320;51.498;6.556;2023-01-01T04:43:04;4.38;;;1.83;;
8564;SDS011;4320;51.498;6.556;2023-01-01T04:45:30;6.07;;;2.03;;
8564;SDS011;4320;51.498;6.556;2023-01-01T04:47:55;6.72;;;1.98;;
8564;SDS011;4320;51.498;6.556;2023-01-01T04:50:21;4.20;;;1.85;;
8564;SDS011;4320;51.498;6.556;2023-01-01T04:52:47;4.25;;;1.73;;
8564;SDS011;4320;51.498;6.556;2023-01-01T04:55:15;4.32;;;2.03;;
8564;SDS011;4320;51.498;6.556;2023-01-01T04:57:41;7.03;;;1.98;;
8564;SDS011;4320;51.498;6.556;2023-01-01T05:00:07;4.78;;;1.75;;
8564;SDS011;4320;51.498;6.556;2023-01-01T05:02:33;6.18;;;1.90;;
8564;SDS011;4320;51.498;6.556;2023-01-01T05:04:58;5.10;;;2.05;;
8564;SDS011;4320;51.498;6.556;2023-01-01T05:07:24;9.55;;;1.70;;
8564;SDS011;4320;51.498;6.556;2023-01-01T05:09:50;5.57;;;1.85;;
8564;SDS011;4320;51.498;6.556;2023-01-01T05:12:15;3.95;;;1.85;;
8564;SDS011;4320;51.498;6.556;2023-01-01T05:14:41;8.55;;;2.35;;
8564;SDS011;4320;51.498;6.556;2023-01-01T05:17:06;4.68;;;1.90;;
8564;SDS011;4320;51.498;6.556;2023-01-01T05:19:32;5.72;;;2.20;;
8564;SDS011;4320;51.498;6.556;2023-01-01T05:21:57;3.22;;;1.90;;
8564;SDS011;4320;51.498;6.556;2023-01-01T05:24:23;4.70;;;1.92;;
8564;SDS011;4320;51.498;6.556;2023-01-01T05:26:49;3.45;;;1.77;;
8564;SDS011;4320;51.498;6.556;2023-01-01T05:29:14;4.20;;;1.55;;
8564;SDS011;4320;51.498;6.556;2023-01-01T05:31:40;8.82;;;2.20;;
8564;SDS011;4320;51.498;6.556;2023-01-01T05:34:06;2.95;;;1.73;;
8564;SDS011;4320;51.498;6.556;2023-01-01T05:36:32;5.55;;;2.13;;
8564;SDS011;4320;51.498;6.556;2023-01-01T05:39:02;3.47;;;2.00;;
8564;SDS011;4320;51.498;6.556;2023-01-01T05:41:28;7.00;;;1.58;;
8564;SDS011;4320;51.498;6.556;2023-01-01T05:43:55;4.38;;;1.95;;
8564;SDS011;4320;51.498;6.556;2023-01-01T05:46:21;5.95;;;1.95;;
8564;SDS011;4320;51.498;6.556;2023-01-01T05:48:49;6.95;;;2.20;;
8564;SDS011;4320;51.498;6.556;2023-01-01T05:51:17;4.60;;;2.25;;
8564;SDS011;4320;51.498;6.556;2023-01-01T05:53:44;4.28;;;1.70;;
8564;SDS011;4320;51.498;6.556;2023-01-01T05:56:11;5.50;;;1.77;;
8564;SDS011;4320;51.498;6.556;2023-01-01T05:58:37;3.55;;;1.52;;
8564;SDS011;4320;51.498;6.556;2023-01-01T06:01:08;3.75;;;1.88;;
8564;SDS011;4320;51.498;6.556;2023-01-01T06:03:35;3.78;;;1.90;;
8564;SDS011;4320;51.498;6.556;2023-01-01T06:06:02;5.90;;;2.10;;
8564;SDS011;4320;51.498;6.556;2023-01-01T06:08:29;4.40;;;1.83;;
8564;SDS011;4320;51.498;6.556;2023-01-01T06:10:58;6.65;;;1.67;;
8564;SDS011;4320;51.498;6.556;2023-01-01T06:13:25;4.07;;;1.90;;
8564;SDS011;4320;51.498;6.556;2023-01-01T06:15:52;7.13;;;2.13;;
8564;SDS011;4320;51.498;6.556;2023-01-01T06:18:19;7.35;;;2.10;;
8564;SDS011;4320;51.498;6.556;2023-01-01T06:20:44;5.75;;;1.90;;
8564;SDS011;4320;51.498;6.556;2023-01-01T06:23:10;3.78;;;1.90;;
8564;SDS011;4320;51.498;6.556;2023-01-01T06:25:35;5.53;;;2.15;;
8564;SDS011;4320;51.498;6.556;2023-01-01T06:28:01;3.80;;;2.15;;
8564;SDS011;4320;51.498;6.556;2023-01-01T06:30:27;2.63;;;1.70;;
8564;SDS011;4320;51.498;6.556;2023-01-01T06:32:52;6.13;;;1.65;;
8564;SDS011;4320;51.498;6.556;2023-01-01T06:35:18;4.63;;;1.85;;
8564;SDS011;4320;51.498;6.556;2023-01-01T06:37:43;5.47;;;1.90;;
8564;SDS011;4320;51.498;6.556;2023-01-01T06:40:09;4.07;;;1.85;;
8564;SDS011;4320;51.498;6.556;2023-01-01T06:42:35;5.50;;;2.00;;
8564;SDS011;4320;51.498;6.556;2023-01-01T06:45:00;7.22;;;2.10;;
8564;SDS011;4320;51.498;6.556;2023-01-01T06:47:26;3.50;;;2.10;;
8564;SDS011;4320;51.498;6.556;2023-01-01T06:49:52;5.88;;;1.65;;
8564;SDS011;4320;51.498;6.556;2023-01-01T06:52:17;5.03;;;2.17;;
8564;SDS011;4320;51.498;6.556;2023-01-01T06:54:43;4.20;;;1.80;;
8564;SDS011;4320;51.498;6.556;2023-01-01T06:57:08;7.15;;;2.03;;
8564;SDS011;4320;51.498;6.556;2023-01-01T06:59:34;4.40;;;1.90;;
8564;SDS011;4320;51.498;6.556;2023-01-01T07:01:59;6.78;;;1.90;;
8564;SDS011;4320;51.498;6.556;2023-01-01T07:04:25;7.10;;;2.40;;
8564;SDS011;4320;51.498;6.556;2023-01-01T07:06:51;6.40;;;1.70;;
8564;SDS011;4320;51.498;6.556;2023-01-01T07:09:16;5.25;;;1.80;;
8564;SDS011;4320;51.498;6.556;2023-01-01T07:11:42;4.05;;;2.13;;
8564;SDS011;4320;51.498;6.556;2023-01-01T07:14:07;5.53;;;1.92;;
8564;SDS011;4320;51.498;6.556;2023-01-01T07:16:33;5.97;;;2.38;;
8564;SDS011;4320;51.498;6.556;2023-01-01T07:18:59;6.03;;;2.10;;
8564;SDS011;4320;51.498;6.556;2023-01-01T07:23:59;7.03;;;2.63;;
8564;SDS011;4320;51.498;6.556;2023-01-01T07:26:27;6.63;;;2.38;;
8564;SDS011;4320;51.498;6.556;2023-01-01T07:28:53;4.18;;;1.98;;
8564;SDS011;4320;51.498;6.556;2023-01-01T07:31:19;5.00;;;2.30;;
8564;SDS011;4320;51.498;6.556;2023-01-01T07:33:45;5.75;;;2.40;;
8564;SDS011;4320;51.498;6.556;2023-01-01T07:36:11;4.82;;;2.38;;
8564;SDS011;4320;51.498;6.556;2023-01-01T07:38:37;5.38;;;2.38;;
8564;SDS011;4320;51.498;6.556;2023-01-01T07:41:03;6.82;;;2.40;;
8564;SDS011;4320;51.498;6.556;2023-01-01T07:43:29;5.78;;;2.25;;
8564;SDS011;4320;51.498;6.556;2023-01-01T07:45:55;6.85;;;2.65;;
8564;SDS011;4320;51.498;6.556;2023-01-01T07:48:22;2.60;;;2.10;;
8564;SDS011;4320;51.498;6.556;2023-01-01T07:50:47;6.80;;;2.75;;
8564;SDS011;4320;51.498;6.556;2023-01-01T07:53:14;7.22;;;2.30;;
8564;SDS011;4320;51.498;6.556;2023-01-01T07:55:40;4.82;;;2.55;;
8564;SDS011;4320;51.498;6.556;2023-01-01T07:58:06;5.18;;;2.28;;
8564;SDS011;4320;51.498;6.556;2023-01-01T08:00:31;6.32;;;2.30;;
8564;SDS011;4320;51.498;6.556;2023-01-01T08:02:57;3.47;;;2.17;;
8564;SDS011;4320;51.498;6.556;2023-01-01T08:05:23;6.45;;;2.53;;
8564;SDS011;4320;51.498;6.556;2023-01-01T08:07:49;4.20;;;2.03;;
8564;SDS011;4320;51.498;6.556;2023-01-01T08:10:16;5.00;;;2.00;;
8564;SDS011;4320;51.498;6.556;2023-01-01T08:12:44;3.75;;;2.22;;
8564;SDS011;4320;51.498;6.556;2023-01-01T08:15:10;7.35;;;2.85;;
8564;SDS011;4320;51.498;6.556;2023-01-01T08:17:36;5.82;;;2.30;;
8564;SDS011;4320;51.498;6.556;2023-01-01T08:20:03;8.00;;;3.20;;
8564;SDS011;4320;51.498;6.556;2023-01-01T08:22:29;8.25;;;2.22;;
8564;SDS011;4320;51.498;6.556;2023-01-01T08:24:55;5.72;;;2.10;;
8564;SDS011;4320;51.498;6.556;2023-01-01T08:27:21;6.95;;;2.25;;
8564;SDS011;4320;51.498;6.556;2023-01-01T08:29:46;7.88;;;2.50;;
8564;SDS011;4320;51.498;6.556;2023-01-01T08:32:12;7.03;;;2.40;;
8564;SDS011;4320;51.498;6.556;2023-01-01T08:34:38;6.53;;;2.28;;
8564;SDS011;4320;51.498;6.556;2023-01-01T08:37:04;6.72;;;2.20;;
8564;SDS011;4320;51.498;6.556;2023-01-01T08:39:31;7.00;;;2.70;;
8564;SDS011;4320;51.498;6.556;2023-01-01T08:41:57;7.40;;;2.40;;
8564;SDS011;4320;51.498;6.556;2023-01-01T08:44:22;4.00;;;2.30;;
8564;SDS011;4320;51.498;6.556;2023-01-01T08:46:48;11.13;;;2.60;;
8564;SDS011;4320;51.498;6.556;2023-01-01T08:49:16;4.38;;;2.53;;
8564;SDS011;4320;51.498;6.556;2023-01-01T08:51:42;8.73;;;2.28;;
8564;SDS011;4320;51.498;6.556;2023-01-01T08:54:08;4.45;;;2.20;;
8564;SDS011;4320;51.498;6.556;2023-01-01T08:56:33;5.05;;;2.00;;
8564;SDS011;4320;51.498;6.556;2023-01-01T08:58:59;4.43;;;2.15;;
8564;SDS011;4320;51.498;6.556;2023-01-01T09:01:25;5.85;;;2.33;;
8564;SDS011;4320;51.498;6.556;2023-01-01T09:03:51;7.07;;;2.10;;
8564;SDS011;4320;51.498;6.556;2023-01-01T09:06:17;14.80;;;2.60;;
8564;SDS011;4320;51.498;6.556;2023-01-01T09:08:43;5.20;;;2.17;;
8564;SDS011;4320;51.498;6.556;2023-01-01T09:11:21;6.22;;;2.75;;
8564;SDS011;4320;51.498;6.556;2023-01-01T09:13:51;7.63;;;2.53;;
8564;SDS011;4320;51.498;6.556;2023-01-01T09:16:18;4.95;;;1.80;;
8564;SDS011;4320;51.498;6.556;2023-01-01T09:18:45;4.80;;;2.20;;
8564;SDS011;4320;51.498;6.556;2023-01-01T09:21:10;3.42;;;2.03;;
8564;SDS011;4320;51.498;6.556;2023-01-01T09:23:36;5.30;;;2.50;;
8564;SDS011;4320;51.498;6.556;2023-01-01T09:26:02;9.13;;;2.58;;
8564;SDS011;4320;51.498;6.556;2023-01-01T09:28:29;8.30;;;2.83;;
8564;SDS011;4320;51.498;6.556;2023-01-01T09:30:55;5.78;;;2.35;;
8564;SDS011;4320;51.498;6.556;2023-01-01T09:33:20;6.53;;;1.98;;
8564;SDS011;4320;51.498;6.556;2023-01-01T09:35:46;4.35;;;2.38;;
8564;SDS011;4320;51.498;6.556;2023-01-01T09:38:11;4.68;;;2.10;;
8564;SDS011;4320;51.498;6.556;2023-01-01T09:45:58;7.40;;;2.45;;
8564;SDS011;4320;51.498;6.556;2023-01-01T09:48:27;7.60;;;2.42;;
8564;SDS011;4320;51.498;6.556;2023-01-01T09:50:54;6.50;;;2.33;;
8564;SDS011;4320;51.498;6.556;2023-01-01T09:56:04;4.45;;;2.33;;
8564;SDS011;4320;51.498;6.556;2023-01-01T09:58:34;10.70;;;2.80;;
8564;SDS011;4320;51.498;6.556;2023-01-01T10:14:54;5.65;;;2.47;;
8564;SDS011;4320;51.498;6.556;2023-01-01T10:17:38;9.18;;;3.03;;
8564;SDS011;4320;51.498;6.556;2023-01-01T10:20:18;5.82;;;2.63;;
8564;SDS011;4320;51.498;6.556;2023-01-01T10:22:54;5.82;;;2.20;;
8564;SDS011;4320;51.498;6.556;2023-01-01T10:25:24;10.52;;;2.58;;
8564;SDS011;4320;51.498;6.556;2023-01-01T10:27:58;7.38;;;2.42;;
8564;SDS011;4320;51.498;6.556;2023-01-01T10:30:28;5.35;;;2.53;;
8564;SDS011;4320;51.498;6.556;2023-01-01T10:32:55;5.70;;;2.80;;
8564;SDS011;4320;51.498;6.556;2023-01-01T10:35:22;6.75;;;2.90;;
8564;SDS011;4320;51.498;6.556;2023-01-01T10:37:55;5.70;;;2.67;;
8564;SDS011;4320;51.498;6.556;2023-01-01T10:40:25;4.25;;;2.28;;
8564;SDS011;4320;51.498;6.556;2023-01-01T10:42:55;6.97;;;2.38;;
8564;SDS011;4320;51.498;6.556;2023-01-01T10:45:32;10.70;;;2.60;;
8564;SDS011;4320;51.498;6.556;2023-01-01T10:53:40;8.27;;;2.67;;
8564;SDS011;4320;51.498;6.556;2023-01-01T10:56:11;4.68;;;2.15;;
8564;SDS011;4320;51.498;6.556;2023-01-01T11:01:30;6.03;;;2.40;;
8564;SDS011;4320;51.498;6.556;2023-01-01T11:06:39;10.48;;;2.83;;
8564;SDS011;4320;51.498;6.556;2023-01-01T11:09:22;6.93;;;2.63;;
8564;SDS011;4320;51.498;6.556;2023-01-01T11:11:54;4.10;;;1.90;;
8564;SDS011;4320;51.498;6.556;2023-01-01T11:14:26;3.53;;;2.10;;
8564;SDS011;4320;51.498;6.556;2023-01-01T11:16:54;6.95;;;2.30;;
8564;SDS011;4320;51.498;6.556;2023-01-01T11:19:34;9.93;;;3.15;;
8564;SDS011;4320;51.498;6.556;2023-01-01T11:22:02;5.47;;;2.15;;
8564;SDS011;4320;51.498;6.556;2023-01-01T11:24:29;9.50;;;3.35;;
8564;SDS011;4320;51.498;6.556;2023-01-01T11:27:23;9.18;;;3.42;;
8564;SDS011;4320;51.498;6.556;2023-01-01T11:29:49;4.88;;;2.30;;
8564;SDS011;4320;51.498;6.556;2023-01-01T11:32:20;6.07;;;2.38;;
8564;SDS011;4320;51.498;6.556;2023-01-01T11:35:00;8.48;;;3.30;;
8564;SDS011;4320;51.498;6.556;2023-01-01T11:37:36;5.07;;;2.90;;
8564;SDS011;4320;51.498;6.556;2023-01-01T11:40:03;7.15;;;2.55;;
8564;SDS011;4320;51.498;6.556;2023-01-01T11:42:34;6.18;;;2.80;;
8564;SDS011;4320;51.498;6.556;2023-01-01T11:47:50;6.40;;;2.47;;
8564;SDS011;4320;51.498;6.556;2023-01-01T11:52:51;9.55;;;2.63;;
8564;SDS011;4320;51.498;6.556;2023-01-01T11:55:36;9.38;;;2.50;;
8564;SDS011;4320;51.498;6.556;2023-01-01T12:00:56;5.55;;;2.40;;
8564;SDS011;4320;51.498;6.556;2023-01-01T12:08:35;7.28;;;2.30;;
8564;SDS011;4320;51.498;6.556;2023-01-01T12:11:09;5.35;;;2.30;;
8564;SDS011;4320;51.498;6.556;2023-01-01T12:14:24;6.40;;;2.60;;
8564;SDS011;4320;51.498;6.556;2023-01-01T12:19:20;5.70;;;2.25;;
8564;SDS011;4320;51.498;6.556;2023-01-01T12:21:50;5.72;;;2.40;;
8564;SDS011;4320;51.498;6.556;2023-01-01T12:24:19;8.05;;;2.67;;
8564;SDS011;4320;51.498;6.556;2023-01-01T12:26:51;6.32;;;2.13;;
8564;SDS011;4320;51.498;6.556;2023-01-01T12:30:00;6.85;;;2.20;;
8564;SDS011;4320;51.498;6.556;2023-01-01T12:32:57;5.85;;;2.58;;
8564;SDS011;4320;51.498;6.556;2023-01-01T12:41:11;5.00;;;2.47;;
8564;SDS011;4320;51.498;6.556;2023-01-01T12:51:46;4.57;;;2.50;;
8564;SDS011;4320;51.498;6.556;2023-01-01T12:57:08;7.05;;;2.97;;
8564;SDS011;4320;51.498;6.556;2023-01-01T12:59:52;5.47;;;2.28;;
8564;SDS011;4320;51.498;6.556;2023-01-01T13:02:20;6.55;;;2.08;;
8564;SDS011;4320;51.498;6.556;2023-01-01T13:04:50;6.88;;;2.08;;
8564;SDS011;4320;51.498;6.556;2023-01-01T13:07:22;7.07;;;2.65;;
8564;SDS011;4320;51.498;6.556;2023-01-01T13:09:53;6.43;;;2.42;;
8564;SDS011;4320;51.498;6.556;2023-01-01T13:12:20;9.60;;;2.85;;
8564;SDS011;4320;51.498;6.556;2023-01-01T13:14:52;6.30;;;2.03;;
8564;SDS011;4320;51.498;6.556;2023-01-01T13:17:21;9.52;;;2.50;;
8564;SDS011;4320;51.498;6.556;2023-01-01T13:19:56;5.15;;;2.58;;
8564;SDS011;4320;51.498;6.556;2023-01-01T13:25:25;5.88;;;2.95;;
8564;SDS011;4320;51.498;6.556;2023-01-01T13:38:56;15.50;;;2.85;;
8564;SDS011;4320;51.498;6.556;2023-01-01T14:00:17;9.70;;;3.72;;
8564;SDS011;4320;51.498;6.556;2023-01-01T14:02:49;9.10;;;3.08;;
8564;SDS011;4320;51.498;6.556;2023-01-01T14:05:33;11.02;;;4.10;;
8564;SDS011;4320;51.498;6.556;2023-01-01T14:08:01;6.60;;;3.28;;
8564;SDS011;4320;51.498;6.556;2023-01-01T14:10:30;11.82;;;3.50;;
8564;SDS011;4320;51.498;6.556;2023-01-01T14:18:01;6.43;;;2.60;;
8564;SDS011;4320;51.498;6.556;2023-01-01T14:20:36;6.93;;;2.88;;
8564;SDS011;4320;51.498;6.556;2023-01-01T14:23:08;6.70;;;3.00;;
8564;SDS011;4320;51.498;6.556;2023-01-01T14:25:36;9.13;;;2.67;;
8564;SDS011;4320;51.498;6.556;2023-01-01T14:28:04;8.82;;;2.83;;
8564;SDS011;4320;51.498;6.556;2023-01-01T14:30:46;6.85;;;2.47;;
8564;SDS011;4320;51.498;6.556;2023-01-01T14:33:22;6.38;;;2.58;;
8564;SDS011;4320;51.498;6.556;2023-01-01T14:35:59;6.63;;;2.80;;
8564;SDS011;4320;51.498;6.556;2023-01-01T14:38:30;8.65;;;2.85;;
8564;SDS011;4320;51.498;6.556;2023-01-01T14:43:52;5.18;;;2.65;;
8564;SDS011;4320;51.498;6.556;2023-01-01T14:46:21;4.82;;;2.83;;
8564;SDS011;4320;51.498;6.556;2023-01-01T14:48:51;8.88;;;3.08;;
8564;SDS011;4320;51.498;6.556;2023-01-01T14:51:20;7.70;;;3.08;;
8564;SDS011;4320;51.498;6.556;2023-01-01T14:53:48;7.20;;;3.38;;
8564;SDS011;4320;51.498;6.556;2023-01-01T14:56:32;6.95;;;2.83;;
8564;SDS011;4320;51.498;6.556;2023-01-01T14:59:05;4.72;;;2.42;;
8564;SDS011;4320;51.498;6.556;2023-01-01T15:01:41;7.68;;;3.60;;
8564;SDS011;4320;51.498;6.556;2023-01-01T15:04:22;10.00;;;3.63;;
8564;SDS011;4320;51.498;6.556;2023-01-01T15:06:56;7.20;;;3.03;;
8564;SDS011;4320;51.498;6.556;2023-01-01T15:09:24;9.93;;;3.03;;
8564;SDS011;4320;51.498;6.556;2023-01-01T15:11:53;7.15;;;2.78;;
8564;SDS011;4320;51.498;6.556;2023-01-01T15:19:31;4.47;;;2.60;;
8564;SDS011;4320;51.498;6.556;2023-01-01T15:21:58;7.28;;;2.70;;
8564;SDS011;4320;51.498;6.556;2023-01-01T15:24:25;6.20;;;3.03;;
8564;SDS011;4320;51.498;6.556;2023-01-01T15:26:54;5.32;;;2.65;;
8564;SDS011;4320;51.498;6.556;2023-01-01T15:31:53;8.07;;;3.03;;
8564;SDS011;4320;51.498;6.556;2023-01-01T15:34:23;5.40;;;3.25;;
8564;SDS011;4320;51.498;6.556;2023-01-01T15:37:03;8.88;;;3.35;;
8564;SDS011;4320;51.498;6.556;2023-01-01T15:39:31;7.35;;;3.08;;
8564;SDS011;4320;51.498;6.556;2023-01-01T15:41:56;7.57;;;3.38;;
8564;SDS011;4320;51.498;6.556;2023-01-01T15:44:26;6.30;;;3.05;;
8564;SDS011;4320;51.498;6.556;2023-01-01T15:47:02;6.43;;;3.05;;
8564;SDS011;4320;51.498;6.556;2023-01-01T15:49:39;9.32;;;3.72;;
8564;SDS011;4320;51.498;6.556;2023-01-01T15:52:06;5.47;;;2.95;;
8564;SDS011;4320;51.498;6.556;2023-01-01T15:54:48;7.32;;;3.15;;
8564;SDS011;4320;51.498;6.556;2023-01-01T15:57:18;5.82;;;3.10;;
8564;SDS011;4320;51.498;6.556;2023-01-01T15:59:46;10.27;;;2.95;;
8564;SDS011;4320;51.498;6.556;2023-01-01T16:02:23;7.63;;;3.03;;
8564;SDS011;4320;51.498;6.556;2023-01-01T16:04:54;7.53;;;3.17;;
8564;SDS011;4320;51.498;6.556;2023-01-01T16:07:21;5.65;;;3.05;;
8564;SDS011;4320;51.498;6.556;2023-01-01T16:09:50;5.20;;;2.97;;
8564;SDS011;4320;51.498;6.556;2023-01-01T16:12:16;7.47;;;3.28;;
8564;SDS011;4320;51.498;6.556;2023-01-01T16:14:42;5.72;;;2.70;;
8564;SDS011;4320;51.498;6.556;2023-01-01T16:17:11;8.38;;;4.32;;
8564;SDS011;4320;51.498;6.556;2023-01-01T16:19:43;14.25;;;6.20;;
8564;SDS011;4320;51.498;6.556;2023-01-01T16:22:12;10.80;;;5.13;;
8564;SDS011;4320;51.498;6.556;2023-01-01T16:24:39;11.10;;;6.00;;
8564;SDS011;4320;51.498;6.556;2023-01-01T16:27:05;11.45;;;5.03;;
8564;SDS011;4320;51.498;6.556;2023-01-01T16:29:31;10.88;;;4.63;;
8564;SDS011;4320;51.498;6.556;2023-01-01T16:31:56;14.18;;;5.72;;
8564;SDS011;4320;51.498;6.556;2023-01-01T16:34:22;14.10;;;6.68;;
8564;SDS011;4320;51.498;6.556;2023-01-01T16:36:47;6.93;;;3.15;;
8564;SDS011;4320;51.498;6.556;2023-01-01T16:39:13;6.53;;;3.33;;
8564;SDS011;4320;51.498;6.556;2023-01-01T16:41:39;7.85;;;4.18;;
8564;SDS011;4320;51.498;6.556;2023-01-01T16:44:07;7.47;;;3.85;;
8564;SDS011;4320;51.498;6.556;2023-01-01T16:46:37;9.15;;;3.90;;
8564;SDS011;4320;51.498;6.556;2023-01-01T16:49:03;9.23;;;6.10;;
8564;SDS011;4320;51.498;6.556;2023-01-01T16:51:29;8.90;;;4.93;;
8564;SDS011;4320;51.498;6.556;2023-01-01T16:53:55;13.38;;;8.02;;
8564;SDS011;4320;51.498;6.556;2023-01-01T16:56:23;8.85;;;4.97;;
8564;SDS011;4320;51.498;6.556;2023-01-01T16:58:49;32.05;;;16.50;;
8564;SDS011;4320;51.498;6.556;2023-01-01T17:01:15;11.93;;;8.20;;
8564;SDS011;4320;51.498;6.556;2023-01-01T17:03:40;9.77;;;6.97;;
8564;SDS011;4320;51.498;6.556;2023-01-01T17:06:07;13.23;;;6.97;;
8564;SDS011;4320;51.498;6.556;2023-01-01T17:08:34;8.02;;;5.45;;
8564;SDS011;4320;51.498;6.556;2023-01-01T17:11:07;8.82;;;5.35;;
8564;SDS011;4320;51.498;6.556;2023-01-01T17:13:39;8.73;;;4.20;;
8564;SDS011;4320;51.498;6.556;2023-01-01T17:16:06;6.47;;;3.95;;
8564;SDS011;4320;51.498;6.556;2023-01-01T17:18:32;8.45;;;3.28;;
8564;SDS011;4320;51.498;6.556;2023-01-01T17:21:05;6.82;;;3.47;;
8564;SDS011;4320;51.498;6.556;2023-01-01T17:23:39;5.50;;;2.67;;
8564;SDS011;4320;51.498;6.556;2023-01-01T17:26:10;4.80;;;2.22;;
8564;SDS011;4320;51.498;6.556;2023-01-01T17:28:40;2.78;;;2.25;;
8564;SDS011;4320;51.498;6.556;2023-01-01T17:31:07;4.88;;;2.45;;
8564;SDS011;4320;51.498;6.556;2023-01-01T17:33:35;3.15;;;2.30;;
8564;SDS011;4320;51.498;6.556;2023-01-01T17:36:02;10.20;;;5.18;;
8564;SDS011;4320;51.498;6.556;2023-01-01T17:38:29;5.88;;;2.13;;
8564;SDS011;4320;51.498;6.556;2023-01-01T17:41:02;5.35;;;2.50;;
8564;SDS011;4320;51.498;6.556;2023-01-01T17:43:39;6.80;;;2.10;;
8564;SDS011;4320;51.498;6.556;2023-01-01T17:46:08;3.65;;;2.60;;
8564;SDS011;4320;51.498;6.556;2023-01-01T17:48:42;5.47;;;3.17;;